sensor_id;sensor_type;location;lat;lon;timestamp;P1;durP1;ratioP1;P2;durP2;ratioP2
76477;SDS011;65309;49.790;18.972;2023-09-19T00:03:35;16.55;;;10.40;;
76477;SDS011;65309;49.790;18.972;2023-09-19T00:08:39;16.60;;;10.27;;
76477;SDS011;65309;49.790;18.972;2023-09-19T00:13:43;14.07;;;10.30;;
76477;SDS011;65309;49.790;18.972;2023-09-19T00:18:45;16.63;;;10.32;;
76477;SDS011;65309;49.790;18.972;2023-09-19T00:23:48;10.68;;;7.88;;
76477;SDS011;65309;49.790;18.972;2023-09-19T00:28:53;10.30;;;7.80;;
76477;SDS011;65309;49.790;18.972;2023-09-19T00:33:55;11.05;;;8.32;;
76477;SDS011;65309;49.790;18.972;2023-09-19T00:39:01;10.70;;;8.23;;
76477;SDS011;65309;49.790;18.972;2023-09-19T00:44:06;9.18;;;7.65;;
76477;SDS011;65309;49.790;18.972;2023-09-19T00:49:08;10.85;;;9.20;;
76477;SDS011;65309;49.790;18.972;2023-09-19T00:54:11;12.10;;;9.38;;
76477;SDS011;65309;49.790;18.972;2023-09-19T00:59:21;13.43;;;8.73;;
76477;SDS011;65309;49.790;18.972;2023-09-19T01:04:24;11.63;;;9.38;;
76477;SDS011;65309;49.790;18.972;2023-09-19T01:09:26;12.13;;;8.65;;
76477;SDS011;65309;49.790;18.972;2023-09-19T01:14:31;12.25;;;9.02;;
76477;SDS011;65309;49.790;18.972;2023-09-19T01:20:01;12.93;;;9.40;;
76477;SDS011;65309;49.790;18.972;2023-09-19T01:30:53;11.43;;;8.88;;
76477;SDS011;65309;49.790;18.972;2023-09-19T01:35:59;16.35;;;9.18;;
76477;SDS011;65309;49.790;18.972;2023-09-19T01:41:03;16.55;;;9.80;;
76477;SDS011;65309;49.790;18.972;2023-09-19T01:46:16;12.57;;;8.73;;
76477;SDS011;65309;49.790;18.972;2023-09-19T01:51:26;11.88;;;8.88;;
76477;SDS011;65309;49.790;18.972;2023-09-19T01:56:36;10.82;;;8.88;;
76477;SDS011;65309;49.790;18.972;2023-09-19T02:02:00;11.30;;;8.85;;
76477;SDS011;65309;49.790;18.972;2023-09-19T02:07:03;10.90;;;9.32;;
76477;SDS011;65309;49.790;18.972;2023-09-19T02:12:07;10.90;;;8.65;;
76477;SDS011;65309;49.790;18.972;2023-09-19T02:17:11;13.35;;;9.45;;
76477;SDS011;65309;49.790;18.972;2023-09-19T02:22:14;12.73;;;8.35;;
76477;SDS011;65309;49.790;18.972;2023-09-19T02:27:16;15.18;;;9.73;;
76477;SDS011;65309;49.790;18.972;2023-09-19T02:32:20;12.30;;;9.13;;
76477;SDS011;65309;49.790;18.972;2023-09-19T02:37:23;9.95;;;8.68;;
76477;SDS011;65309;49.790;18.972;2023-09-19T02:42:25;10.85;;;7.85;;
76477;SDS011;65309;49.790;18.972;2023-09-19T02:47:28;13.55;;;8.15;;
76477;SDS011;65309;49.790;18.972;2023-09-19T02:52:32;11.85;;;9.00;;
76477;SDS011;65309;49.790;18.972;2023-09-19T02:57:34;11.30;;;7.93;;
76477;SDS011;65309;49.790;18.972;2023-09-19T03:02:38;13.77;;;9.13;;
76477;SDS011;65309;49.790;18.972;2023-09-19T03:07:41;14.02;;;9.38;;
76477;SDS011;65309;49.790;18.972;2023-09-19T03:12:45;12.15;;;8.95;;
76477;SDS011;65309;49.790;18.972;2023-09-19T03:17:49;14.43;;;9.45;;
76477;SDS011;65309;49.790;18.972;2023-09-19T03:22:51;11.90;;;9.18;;
76477;SDS011;65309;49.790;18.972;2023-09-19T03:27:55;12.02;;;9.30;;
76477;SDS011;65309;49.790;18.972;2023-09-19T03:33:00;15.20;;;10.32;;
76477;SDS011;65309;49.790;18.972;2023-09-19T03:38:03;19.02;;;10.63;;
76477;SDS011;65309;49.790;18.972;2023-09-19T03:43:05;15.77;;;11.05;;
76477;SDS011;65309;49.790;18.972;2023-09-19T03:48:09;15.70;;;12.23;;
76477;SDS011;65309;49.790;18.972;2023-09-19T03:53:11;17.38;;;12.65;;
76477;SDS011;65309;49.790;18.972;2023-09-19T03:58:14;16.83;;;11.80;;
76477;SDS011;65309;49.790;18.972;2023-09-19T04:03:17;19.63;;;13.30;;
76477;SDS011;65309;49.790;18.972;2023-09-19T04:08:23;19.17;;;13.27;;
76477;SDS011;65309;49.790;18.972;2023-09-19T04:18:30;15.52;;;10.20;;
76477;SDS011;65309;49.790;18.972;2023-09-19T04:23:35;13.50;;;9.52;;
76477;SDS011;65309;49.790;18.972;2023-09-19T04:28:37;13.75;;;9.93;;
76477;SDS011;65309;49.790;18.972;2023-09-19T04:33:42;12.10;;;9.25;;
76477;SDS011;65309;49.790;18.972;2023-09-19T04:38:45;12.68;;;9.63;;
76477;SDS011;65309;49.790;18.972;2023-09-19T04:43:47;12.05;;;8.15;;
76477;SDS011;65309;49.790;18.972;2023-09-19T04:48:52;11.50;;;9.13;;
76477;SDS011;65309;49.790;18.972;2023-09-19T04:53:55;13.10;;;9.38;;
76477;SDS011;65309;49.790;18.972;2023-09-19T04:58:57;10.75;;;8.77;;
76477;SDS011;65309;49.790;18.972;2023-09-19T05:04:01;14.13;;;10.00;;
76477;SDS011;65309;49.790;18.972;2023-09-19T05:09:06;22.73;;;12.60;;
76477;SDS011;65309;49.790;18.972;2023-09-19T05:14:10;21.02;;;12.93;;
76477;SDS011;65309;49.790;18.972;2023-09-19T05:19:14;22.25;;;14.68;;
76477;SDS011;65309;49.790;18.972;2023-09-19T05:24:17;22.83;;;14.60;;
76477;SDS011;65309;49.790;18.972;2023-09-19T05:29:19;21.35;;;14.77;;
76477;SDS011;65309;49.790;18.972;2023-09-19T05:34:22;16.67;;;12.05;;
76477;SDS011;65309;49.790;18.972;2023-09-19T05:39:24;18.50;;;12.73;;
76477;SDS011;65309;49.790;18.972;2023-09-19T05:49:30;16.90;;;11.15;;
76477;SDS011;65309;49.790;18.972;2023-09-19T05:54:32;15.38;;;11.40;;
76477;SDS011;65309;49.790;18.972;2023-09-19T05:59:35;15.23;;;11.57;;
76477;SDS011;65309;49.790;18.972;2023-09-19T06:09:42;16.17;;;11.32;;
76477;SDS011;65309;49.790;18.972;2023-09-19T06:19:48;17.77;;;11.25;;
76477;SDS011;65309;49.790;18.972;2023-09-19T06:24:52;15.38;;;10.68;;
76477;SDS011;65309;49.790;18.972;2023-09-19T06:29:54;15.13;;;9.82;;
76477;SDS011;65309;49.790;18.972;2023-09-19T06:34:58;12.68;;;8.32;;
76477;SDS011;65309;49.790;18.972;2023-09-19T06:40:01;9.70;;;6.95;;
76477;SDS011;65309;49.790;18.972;2023-09-19T06:50:07;7.60;;;4.43;;
76477;SDS011;65309;49.790;18.972;2023-09-19T06:55:14;5.78;;;4.25;;
76477;SDS011;65309;49.790;18.972;2023-09-19T07:00:18;3.90;;;2.95;;
76477;SDS011;65309;49.790;18.972;2023-09-19T07:05:22;4.45;;;2.38;;
76477;SDS011;65309;49.790;18.972;2023-09-19T07:10:24;5.18;;;2.60;;
76477;SDS011;65309;49.790;18.972;2023-09-19T07:15:28;2.80;;;1.77;;
76477;SDS011;65309;49.790;18.972;2023-09-19T07:20:34;4.75;;;2.42;;
76477;SDS011;65309;49.790;18.972;2023-09-19T07:25:36;3.65;;;2.55;;
76477;SDS011;65309;49.790;18.972;2023-09-19T07:35:44;8.77;;;5.28;;
76477;SDS011;65309;49.790;18.972;2023-09-19T07:40:47;8.80;;;6.43;;
76477;SDS011;65309;49.790;18.972;2023-09-19T07:45:50;9.43;;;5.22;;
76477;SDS011;65309;49.790;18.972;2023-09-19T07:56:01;8.13;;;5.53;;
76477;SDS011;65309;49.790;18.972;2023-09-19T08:01:04;5.95;;;3.45;;
76477;SDS011;65309;49.790;18.972;2023-09-19T08:06:09;3.25;;;2.45;;
76477;SDS011;65309;49.790;18.972;2023-09-19T08:11:11;4.80;;;2.88;;
76477;SDS011;65309;49.790;18.972;2023-09-19T08:16:14;3.72;;;2.47;;
76477;SDS011;65309;49.790;18.972;2023-09-19T08:21:25;4.15;;;2.65;;
76477;SDS011;65309;49.790;18.972;2023-09-19T08:26:30;4.10;;;3.08;;
76477;SDS011;65309;49.790;18.972;2023-09-19T08:31:33;3.95;;;3.13;;
76477;SDS011;65309;49.790;18.972;2023-09-19T08:36:37;5.32;;;3.63;;
76477;SDS011;65309;49.790;18.972;2023-09-19T08:41:40;4.55;;;3.08;;
76477;SDS011;65309;49.790;18.972;2023-09-19T08:46:42;4.85;;;3.58;;
76477;SDS011;65309;49.790;18.972;2023-09-19T08:51:47;5.00;;;3.65;;
76477;SDS011;65309;49.790;18.972;2023-09-19T08:56:55;5.00;;;3.30;;
76477;SDS011;65309;49.790;18.972;2023-09-19T09:02:04;7.15;;;4.00;;
76477;SDS011;65309;49.790;18.972;2023-09-19T09:07:08;4.50;;;3.65;;
76477;SDS011;65309;49.790;18.972;2023-09-19T09:12:12;7.60;;;4.38;;
76477;SDS011;65309;49.790;18.972;2023-09-19T09:17:16;4.57;;;4.00;;
76477;SDS011;65309;49.790;18.972;2023-09-19T09:22:23;5.15;;;3.78;;
76477;SDS011;65309;49.790;18.972;2023-09-19T09:27:25;6.85;;;4.00;;
76477;SDS011;65309;49.790;18.972;2023-09-19T09:32:28;3.90;;;3.47;;
76477;SDS011;65309;49.790;18.972;2023-09-19T09:37:32;3.70;;;3.25;;
76477;SDS011;65309;49.790;18.972;2023-09-19T09:42:36;5.22;;;3.22;;
76477;SDS011;65309;49.790;18.972;2023-09-19T09:47:41;4.00;;;3.22;;
76477;SDS011;65309;49.790;18.972;2023-09-19T09:52:48;3.75;;;3.30;;
76477;SDS011;65309;49.790;18.972;2023-09-19T09:57:52;3.50;;;2.83;;
76477;SDS011;65309;49.790;18.972;2023-09-19T10:03:19;5.18;;;3.10;;
76477;SDS011;65309;49.790;18.972;2023-09-19T10:08:24;3.53;;;2.88;;
76477;SDS011;65309;49.790;18.972;2023-09-19T10:13:32;4.90;;;3.22;;
76477;SDS011;65309;49.790;18.972;2023-09-19T10:18:39;4.03;;;2.72;;
76477;SDS011;65309;49.790;18.972;2023-09-19T10:23:46;5.05;;;2.97;;
76477;SDS011;65309;49.790;18.972;2023-09-19T10:28:48;4.07;;;2.78;;
76477;SDS011;65309;49.790;18.972;2023-09-19T10:33:53;3.88;;;2.92;;
76477;SDS011;65309;49.790;18.972;2023-09-19T10:38:58;3.90;;;2.80;;
76477;SDS011;65309;49.790;18.972;2023-09-19T10:44:06;3.95;;;2.60;;
76477;SDS011;65309;49.790;18.972;2023-09-19T10:49:08;3.83;;;2.85;;
76477;SDS011;65309;49.790;18.972;2023-09-19T10:54:15;3.05;;;2.65;;
76477;SDS011;65309;49.790;18.972;2023-09-19T10:59:20;5.10;;;2.72;;
76477;SDS011;65309;49.790;18.972;2023-09-19T11:04:24;3.65;;;2.47;;
76477;SDS011;65309;49.790;18.972;2023-09-19T11:14:48;2.88;;;2.47;;
76477;SDS011;65309;49.790;18.972;2023-09-19T11:25:45;3.58;;;2.33;;
76477;SDS011;65309;49.790;18.972;2023-09-19T11:30:50;4.85;;;2.42;;
76477;SDS011;65309;49.790;18.972;2023-09-19T11:36:00;3.45;;;2.60;;
76477;SDS011;65309;49.790;18.972;2023-09-19T11:46:51;6.30;;;2.65;;
76477;SDS011;65309;49.790;18.972;2023-09-19T11:51:54;4.45;;;2.72;;
76477;SDS011;65309;49.790;18.972;2023-09-19T11:56:58;3.90;;;3.08;;
76477;SDS011;65309;49.790;18.972;2023-09-19T12:02:03;4.07;;;2.90;;
76477;SDS011;65309;49.790;18.972;2023-09-19T12:07:07;3.33;;;2.72;;
76477;SDS011;65309;49.790;18.972;2023-09-19T12:12:20;3.33;;;2.50;;
76477;SDS011;65309;49.790;18.972;2023-09-19T12:17:23;3.65;;;2.90;;
76477;SDS011;65309;49.790;18.972;2023-09-19T12:22:28;3.75;;;2.83;;
76477;SDS011;65309;49.790;18.972;2023-09-19T12:27:43;3.75;;;2.65;;
76477;SDS011;65309;49.790;18.972;2023-09-19T12:32:45;3.78;;;2.65;;
76477;SDS011;65309;49.790;18.972;2023-09-19T12:37:51;4.00;;;2.72;;
76477;SDS011;65309;49.790;18.972;2023-09-19T12:42:58;2.95;;;2.30;;
76477;SDS011;65309;49.790;18.972;2023-09-19T12:48:20;7.35;;;2.47;;
76477;SDS011;65309;49.790;18.972;2023-09-19T12:53:26;5.43;;;2.50;;
76477;SDS011;65309;49.790;18.972;2023-09-19T12:58:32;4.95;;;2.40;;
76477;SDS011;65309;49.790;18.972;2023-09-19T13:03:36;2.80;;;2.30;;
76477;SDS011;65309;49.790;18.972;2023-09-19T13:08:41;4.15;;;2.40;;
76477;SDS011;65309;49.790;18.972;2023-09-19T13:13:45;6.25;;;3.05;;
76477;SDS011;65309;49.790;18.972;2023-09-19T13:18:52;4.50;;;2.33;;
76477;SDS011;65309;49.790;18.972;2023-09-19T13:23:55;3.33;;;2.42;;
76477;SDS011;65309;49.790;18.972;2023-09-19T13:29:19;3.17;;;2.40;;
76477;SDS011;65309;49.790;18.972;2023-09-19T13:34:21;3.47;;;2.70;;
76477;SDS011;65309;49.790;18.972;2023-09-19T13:39:23;4.43;;;2.50;;
76477;SDS011;65309;49.790;18.972;2023-09-19T13:44:27;8.55;;;2.85;;
76477;SDS011;65309;49.790;18.972;2023-09-19T13:49:31;5.00;;;2.83;;
76477;SDS011;65309;49.790;18.972;2023-09-19T13:54:34;4.82;;;2.75;;
76477;SDS011;65309;49.790;18.972;2023-09-19T13:59:37;3.25;;;2.70;;
76477;SDS011;65309;49.790;18.972;2023-09-19T14:04:39;3.35;;;2.83;;
76477;SDS011;65309;49.790;18.972;2023-09-19T14:09:42;3.65;;;2.70;;
76477;SDS011;65309;49.790;18.972;2023-09-19T14:14:45;4.35;;;2.50;;
76477;SDS011;65309;49.790;18.972;2023-09-19T14:19:47;4.80;;;2.70;;
76477;SDS011;65309;49.790;18.972;2023-09-19T14:24:50;5.75;;;2.80;;
76477;SDS011;65309;49.790;18.972;2023-09-19T14:29:53;4.70;;;2.72;;
76477;SDS011;65309;49.790;18.972;2023-09-19T14:34:55;4.22;;;2.60;;
76477;SDS011;65309;49.790;18.972;2023-09-19T14:39:57;4.93;;;2.67;;
76477;SDS011;65309;49.790;18.972;2023-09-19T14:45:01;4.18;;;2.78;;
76477;SDS011;65309;49.790;18.972;2023-09-19T14:50:03;5.07;;;2.25;;
76477;SDS011;65309;49.790;18.972;2023-09-19T14:55:08;3.97;;;2.05;;
76477;SDS011;65309;49.790;18.972;2023-09-19T15:00:17;3.63;;;2.40;;
76477;SDS011;65309;49.790;18.972;2023-09-19T15:05:22;3.90;;;2.33;;
76477;SDS011;65309;49.790;18.972;2023-09-19T15:10:24;5.18;;;2.28;;
76477;SDS011;65309;49.790;18.972;2023-09-19T15:15:28;2.95;;;2.20;;
76477;SDS011;65309;49.790;18.972;2023-09-19T15:20:32;3.20;;;2.28;;
76477;SDS011;65309;49.790;18.972;2023-09-19T15:25:34;3.33;;;2.20;;
76477;SDS011;65309;49.790;18.972;2023-09-19T15:30:38;5.50;;;2.70;;
76477;SDS011;65309;49.790;18.972;2023-09-19T15:35:40;2.95;;;2.33;;
76477;SDS011;65309;49.790;18.972;2023-09-19T15:40:45;5.45;;;2.47;;
76477;SDS011;65309;49.790;18.972;2023-09-19T15:45:50;4.82;;;2.90;;
76477;SDS011;65309;49.790;18.972;2023-09-19T15:50:52;3.65;;;2.97;;
76477;SDS011;65309;49.790;18.972;2023-09-19T15:55:54;3.70;;;3.00;;
76477;SDS011;65309;49.790;18.972;2023-09-19T16:00:58;3.25;;;2.80;;
76477;SDS011;65309;49.790;18.972;2023-09-19T16:06:09;5.55;;;2.60;;
76477;SDS011;65309;49.790;18.972;2023-09-19T16:11:13;4.78;;;2.75;;
76477;SDS011;65309;49.790;18.972;2023-09-19T16:16:17;4.20;;;3.22;;
76477;SDS011;65309;49.790;18.972;2023-09-19T16:21:25;5.47;;;3.15;;
76477;SDS011;65309;49.790;18.972;2023-09-19T16:26:30;6.22;;;3.20;;
76477;SDS011;65309;49.790;18.972;2023-09-19T16:31:34;4.95;;;3.30;;
76477;SDS011;65309;49.790;18.972;2023-09-19T16:36:37;5.25;;;2.80;;
76477;SDS011;65309;49.790;18.972;2023-09-19T16:41:40;4.88;;;3.38;;
76477;SDS011;65309;49.790;18.972;2023-09-19T16:46:44;4.35;;;3.33;;
76477;SDS011;65309;49.790;18.972;2023-09-19T16:51:46;5.40;;;3.10;;
76477;SDS011;65309;49.790;18.972;2023-09-19T16:56:48;4.18;;;3.53;;
76477;SDS011;65309;49.790;18.972;2023-09-19T17:01:52;4.65;;;3.67;;
76477;SDS011;65309;49.790;18.972;2023-09-19T17:06:54;6.63;;;3.92;;
76477;SDS011;65309;49.790;18.972;2023-09-19T17:17:00;10.02;;;4.53;;
76477;SDS011;65309;49.790;18.972;2023-09-19T17:22:04;6.45;;;3.45;;
76477;SDS011;65309;49.790;18.972;2023-09-19T17:27:07;7.18;;;4.47;;
76477;SDS011;65309;49.790;18.972;2023-09-19T17:32:10;4.68;;;4.10;;
76477;SDS011;65309;49.790;18.972;2023-09-19T17:37:12;4.45;;;3.78;;
76477;SDS011;65309;49.790;18.972;2023-09-19T17:47:19;4.65;;;3.33;;
76477;SDS011;65309;49.790;18.972;2023-09-19T17:52:24;7.07;;;3.83;;
76477;SDS011;65309;49.790;18.972;2023-09-19T17:57:26;4.10;;;3.42;;
76477;SDS011;65309;49.790;18.972;2023-09-19T18:02:30;5.22;;;4.00;;
76477;SDS011;65309;49.790;18.972;2023-09-19T18:07:32;4.40;;;3.75;;
76477;SDS011;65309;49.790;18.972;2023-09-19T18:17:39;7.50;;;3.45;;
76477;SDS011;65309;49.790;18.972;2023-09-19T18:22:42;4.38;;;3.55;;
76477;SDS011;65309;49.790;18.972;2023-09-19T18:32:47;3.78;;;2.92;;
76477;SDS011;65309;49.790;18.972;2023-09-19T18:37:56;5.15;;;3.17;;
76477;SDS011;65309;49.790;18.972;2023-09-19T18:42:58;3.15;;;2.45;;
76477;SDS011;65309;49.790;18.972;2023-09-19T18:53:04;5.38;;;2.28;;
76477;SDS011;65309;49.790;18.972;2023-09-19T18:58:06;3.65;;;2.50;;
76477;SDS011;65309;49.790;18.972;2023-09-19T19:03:09;6.68;;;2.15;;
76477;SDS011;65309;49.790;18.972;2023-09-19T19:08:13;4.00;;;2.67;;
76477;SDS011;65309;49.790;18.972;2023-09-19T19:13:15;3.97;;;2.63;;
76477;SDS011;65309;49.790;18.972;2023-09-19T19:23:20;4.43;;;2.33;;
76477;SDS011;65309;49.790;18.972;2023-09-19T19:33:28;4.43;;;2.15;;
76477;SDS011;65309;49.790;18.972;2023-09-19T19:38:30;4.60;;;2.00;;
76477;SDS011;65309;49.790;18.972;2023-09-19T19:48:36;3.20;;;2.17;;
76477;SDS011;65309;49.790;18.972;2023-09-19T19:53:41;5.38;;;2.45;;
76477;SDS011;65309;49.790;18.972;2023-09-19T19:58:43;5.45;;;2.53;;
76477;SDS011;65309;49.790;18.972;2023-09-19T20:03:48;4.15;;;2.13;;
76477;SDS011;65309;49.790;18.972;2023-09-19T20:08:50;3.47;;;2.70;;
76477;SDS011;65309;49.790;18.972;2023-09-19T20:13:56;3.42;;;2.50;;
76477;SDS011;65309;49.790;18.972;2023-09-19T20:19:01;3.03;;;2.53;;
76477;SDS011;65309;49.790;18.972;2023-09-19T20:24:06;4.07;;;2.30;;
76477;SDS011;65309;49.790;18.972;2023-09-19T20:29:11;3.58;;;2.40;;
76477;SDS011;65309;49.790;18.972;2023-09-19T20:39:16;2.75;;;2.28;;
76477;SDS011;65309;49.790;18.972;2023-09-19T20:49:22;3.13;;;2.05;;
76477;SDS011;65309;49.790;18.972;2023-09-19T20:54:25;3.40;;;2.45;;
76477;SDS011;65309;49.790;18.972;2023-09-19T20:59:27;2.78;;;1.95;;
76477;SDS011;65309;49.790;18.972;2023-09-19T21:04:32;3.92;;;2.30;;
76477;SDS011;65309;49.790;18.972;2023-09-19T21:09:34;3.35;;;2.05;;
76477;SDS011;65309;49.790;18.972;2023-09-19T21:14:38;6.07;;;2.42;;
76477;SDS011;65309;49.790;18.972;2023-09-19T21:19:45;2.75;;;2.22;;
76477;SDS011;65309;49.790;18.972;2023-09-19T21:24:47;3.22;;;2.13;;
76477;SDS011;65309;49.790;18.972;2023-09-19T21:29:49;3.42;;;1.80;;
76477;SDS011;65309;49.790;18.972;2023-09-19T21:34:54;3.63;;;2.47;;
76477;SDS011;65309;49.790;18.972;2023-09-19T21:39:56;2.40;;;2.00;;
76477;SDS011;65309;49.790;18.972;2023-09-19T21:44:58;3.75;;;2.00;;
76477;SDS011;65309;49.790;18.972;2023-09-19T21:50:01;2.60;;;1.98;;
76477;SDS011;65309;49.790;18.972;2023-09-19T21:55:05;5.85;;;2.58;;
76477;SDS011;65309;49.790;18.972;2023-09-19T22:00:08;2.63;;;1.73;;
76477;SDS011;65309;49.790;18.972;2023-09-19T22:05:26;2.40;;;1.90;;
76477;SDS011;65309;49.790;18.972;2023-09-19T22:10:28;2.55;;;1.95;;
76477;SDS011;65309;49.790;18.972;2023-09-19T22:15:32;2.35;;;1.75;;
76477;SDS011;65309;49.790;18.972;2023-09-19T22:20:35;4.07;;;2.13;;
76477;SDS011;65309;49.790;18.972;2023-09-19T22:25:40;2.92;;;1.83;;
76477;SDS011;65309;49.790;18.972;2023-09-19T22:30:43;2.40;;;1.70;;
76477;SDS011;65309;49.790;18.972;2023-09-19T22:35:50;4.45;;;1.77;;
76477;SDS011;65309;49.790;18.972;2023-09-19T22:41:02;2.67;;;1.80;;
76477;SDS011;65309;49.790;18.972;2023-09-19T22:46:11;3.42;;;1.77;;
76477;SDS011;65309;49.790;18.972;2023-09-19T22:51:17;4.45;;;2.63;;
76477;SDS011;65309;49.790;18.972;2023-09-19T22:56:26;7.18;;;2.25;;
76477;SDS011;65309;49.790;18.972;2023-09-19T23:01:30;6.57;;;1.80;;
76477;SDS011;65309;49.790;18.972;2023-09-19T23:06:39;4.20;;;2.25;;
76477;SDS011;65309;49.790;18.972;2023-09-19T23:11:45;2.35;;;1.70;;
76477;SDS011;65309;49.790;18.972;2023-09-19T23:16:47;2.20;;;1.65;;
76477;SDS011;65309;49.790;18.972;2023-09-19T23:21:51;2.80;;;1.85;;
76477;SDS011;65309;49.790;18.972;2023-09-19T23:26:56;3.28;;;1.75;;
76477;SDS011;65309;49.790;18.972;2023-09-19T23:32:08;2.83;;;1.75;;
76477;SDS011;65309;49.790;18.972;2023-09-19T23:37:13;2.95;;;2.03;;
76477;SDS011;65309;49.790;18.972;2023-09-19T23:42:16;2.88;;;1.65;;
76477;SDS011;65309;49.790;18.972;2023-09-19T23:47:18;2.70;;;2.05;;
76477;SDS011;65309;49.790;18.972;2023-09-19T23:52:21;3.05;;;1.92;;
76477;SDS011;65309;49.790;18.972;2023-09-19T23:57:23;2.22;;;1.60;;
